In Rescue
 
Open Full Screen Window  High Contrast Mode
Wind Gusting 00 knots
05
July 25, 2021 7:38 AM CDT
Weather Information
Wind Direction
  260 °
Wind Speed
  05 kt (6 mph)
Wind Gust
  00 kt (0 mph)
Altimeter
30.01 in
Visibility
10 SM
Temperature
18° C
64° F
Dewpoint
15° C
59° F
Humidity
83%
1hr Rain Fall
00.00 in.
24hr Rain Fall
00.00 in.
Sky Condition
Clear
VFR

METAR KADC 251238Z AUTO 26005KT 10SM CLR 18/15 A3001 RMK AO2 TS

FAA Disclaimer: The data displayed is for advisory purposes only and is not to be used for flight planning or operations.